sensor_id;sensor_type;location;lat;lon;timestamp;temperature;humidity
11894;DHT22;6006;49.696;8.662;2023-10-13T00:01:53;15.40;99.90
11894;DHT22;6006;49.696;8.662;2023-10-13T00:04:20;15.40;99.90
11894;DHT22;6006;49.696;8.662;2023-10-13T00:06:50;15.40;99.90
11894;DHT22;6006;49.696;8.662;2023-10-13T00:09:17;15.40;99.90
11894;DHT22;6006;49.696;8.662;2023-10-13T00:11:49;15.40;99.90
11894;DHT22;6006;49.696;8.662;2023-10-13T00:14:18;15.50;99.90
11894;DHT22;6006;49.696;8.662;2023-10-13T00:16:48;15.50;99.90
11894;DHT22;6006;49.696;8.662;2023-10-13T00:19:29;15.50;99.90
11894;DHT22;6006;49.696;8.662;2023-10-13T00:22:03;15.50;99.90
11894;DHT22;6006;49.696;8.662;2023-10-13T00:24:34;15.50;99.90
11894;DHT22;6006;49.696;8.662;2023-10-13T00:27:09;15.50;99.90
11894;DHT22;6006;49.696;8.662;2023-10-13T00:29:50;15.50;99.90
11894;DHT22;6006;49.696;8.662;2023-10-13T00:32:31;15.50;99.90
11894;DHT22;6006;49.696;8.662;2023-10-13T00:35:03;15.60;99.90
11894;DHT22;6006;49.696;8.662;2023-10-13T00:37:31;15.60;99.90
11894;DHT22;6006;49.696;8.662;2023-10-13T00:40:07;15.60;99.90
11894;DHT22;6006;49.696;8.662;2023-10-13T00:42:52;15.60;99.90
11894;DHT22;6006;49.696;8.662;2023-10-13T00:45:19;15.60;99.90
11894;DHT22;6006;49.696;8.662;2023-10-13T00:47:46;15.70;99.90
11894;DHT22;6006;49.696;8.662;2023-10-13T00:50:17;15.70;99.90
11894;DHT22;6006;49.696;8.662;2023-10-13T00:52:44;15.70;99.90
11894;DHT22;6006;49.696;8.662;2023-10-13T00:55:18;15.70;99.90
11894;DHT22;6006;49.696;8.662;2023-10-13T00:57:50;15.70;99.90
11894;DHT22;6006;49.696;8.662;2023-10-13T01:00:19;15.70;99.90
11894;DHT22;6006;49.696;8.662;2023-10-13T01:02:53;15.70;99.90
11894;DHT22;6006;49.696;8.662;2023-10-13T01:05:23;15.70;99.90
11894;DHT22;6006;49.696;8.662;2023-10-13T01:07:49;15.70;99.90
11894;DHT22;6006;49.696;8.662;2023-10-13T01:10:18;15.80;99.90
11894;DHT22;6006;49.696;8.662;2023-10-13T01:12:45;15.70;99.90
11894;DHT22;6006;49.696;8.662;2023-10-13T01:15:13;15.70;99.90
11894;DHT22;6006;49.696;8.662;2023-10-13T01:17:43;15.80;99.90
11894;DHT22;6006;49.696;8.662;2023-10-13T01:20:13;15.80;99.90
11894;DHT22;6006;49.696;8.662;2023-10-13T01:22:45;15.80;99.90
11894;DHT22;6006;49.696;8.662;2023-10-13T01:25:22;15.80;99.90
11894;DHT22;6006;49.696;8.662;2023-10-13T01:27:51;15.80;99.90
11894;DHT22;6006;49.696;8.662;2023-10-13T01:30:18;15.80;99.90
11894;DHT22;6006;49.696;8.662;2023-10-13T01:32:48;15.80;99.90
11894;DHT22;6006;49.696;8.662;2023-10-13T01:35:16;15.80;99.90
11894;DHT22;6006;49.696;8.662;2023-10-13T01:37:44;15.80;99.90
11894;DHT22;6006;49.696;8.662;2023-10-13T01:40:11;15.80;99.90
11894;DHT22;6006;49.696;8.662;2023-10-13T01:42:39;15.90;99.90
11894;DHT22;6006;49.696;8.662;2023-10-13T01:45:06;15.80;99.90
11894;DHT22;6006;49.696;8.662;2023-10-13T01:47:32;15.80;99.90
11894;DHT22;6006;49.696;8.662;2023-10-13T01:50:00;15.90;99.90
11894;DHT22;6006;49.696;8.662;2023-10-13T01:52:38;15.90;99.90
11894;DHT22;6006;49.696;8.662;2023-10-13T01:55:08;15.90;99.90
11894;DHT22;6006;49.696;8.662;2023-10-13T01:57:36;15.90;99.90
11894;DHT22;6006;49.696;8.662;2023-10-13T02:00:05;15.90;99.90
11894;DHT22;6006;49.696;8.662;2023-10-13T02:02:44;15.80;99.90
11894;DHT22;6006;49.696;8.662;2023-10-13T02:05:15;15.80;99.90
11894;DHT22;6006;49.696;8.662;2023-10-13T02:07:42;15.80;99.90
11894;DHT22;6006;49.696;8.662;2023-10-13T02:10:11;15.80;99.90
11894;DHT22;6006;49.696;8.662;2023-10-13T02:12:38;15.80;99.90
11894;DHT22;6006;49.696;8.662;2023-10-13T02:15:11;15.70;99.90
11894;DHT22;6006;49.696;8.662;2023-10-13T02:17:46;15.70;99.90
11894;DHT22;6006;49.696;8.662;2023-10-13T02:20:17;15.70;99.90
11894;DHT22;6006;49.696;8.662;2023-10-13T02:22:43;15.70;99.90
11894;DHT22;6006;49.696;8.662;2023-10-13T02:25:15;15.70;99.90
11894;DHT22;6006;49.696;8.662;2023-10-13T02:27:43;15.70;99.90
11894;DHT22;6006;49.696;8.662;2023-10-13T02:30:15;15.70;99.90
11894;DHT22;6006;49.696;8.662;2023-10-13T02:32:41;15.70;99.90
11894;DHT22;6006;49.696;8.662;2023-10-13T02:35:09;15.70;99.90
11894;DHT22;6006;49.696;8.662;2023-10-13T02:37:41;15.70;99.90
11894;DHT22;6006;49.696;8.662;2023-10-13T02:40:10;15.70;99.90
11894;DHT22;6006;49.696;8.662;2023-10-13T02:42:36;15.70;99.90
11894;DHT22;6006;49.696;8.662;2023-10-13T02:45:05;15.60;99.90
11894;DHT22;6006;49.696;8.662;2023-10-13T02:47:32;15.60;99.90
11894;DHT22;6006;49.696;8.662;2023-10-13T02:49:59;15.50;99.90
11894;DHT22;6006;49.696;8.662;2023-10-13T02:52:37;15.40;99.90
11894;DHT22;6006;49.696;8.662;2023-10-13T02:55:07;15.30;99.90
11894;DHT22;6006;49.696;8.662;2023-10-13T02:57:35;15.20;99.90
11894;DHT22;6006;49.696;8.662;2023-10-13T03:00:01;15.10;99.90
11894;DHT22;6006;49.696;8.662;2023-10-13T03:02:39;15.00;99.90
11894;DHT22;6006;49.696;8.662;2023-10-13T03:05:12;15.20;99.90
11894;DHT22;6006;49.696;8.662;2023-10-13T03:07:41;15.20;99.90
11894;DHT22;6006;49.696;8.662;2023-10-13T03:10:09;15.20;99.90
11894;DHT22;6006;49.696;8.662;2023-10-13T03:12:37;15.20;99.90
11894;DHT22;6006;49.696;8.662;2023-10-13T03:15:03;15.20;99.90
11894;DHT22;6006;49.696;8.662;2023-10-13T03:17:41;15.30;99.90
11894;DHT22;6006;49.696;8.662;2023-10-13T03:20:09;15.30;99.90
11894;DHT22;6006;49.696;8.662;2023-10-13T03:22:38;15.20;99.90
11894;DHT22;6006;49.696;8.662;2023-10-13T03:25:05;15.20;99.90
11894;DHT22;6006;49.696;8.662;2023-10-13T03:27:33;15.20;99.90
11894;DHT22;6006;49.696;8.662;2023-10-13T03:30:06;15.30;99.90
11894;DHT22;6006;49.696;8.662;2023-10-13T03:32:41;15.30;99.90
11894;DHT22;6006;49.696;8.662;2023-10-13T03:35:20;15.30;99.90
11894;DHT22;6006;49.696;8.662;2023-10-13T03:37:50;15.30;99.90
11894;DHT22;6006;49.696;8.662;2023-10-13T03:40:17;15.30;99.90
11894;DHT22;6006;49.696;8.662;2023-10-13T03:42:58;15.30;99.90
11894;DHT22;6006;49.696;8.662;2023-10-13T03:45:30;15.30;99.90
11894;DHT22;6006;49.696;8.662;2023-10-13T03:48:05;15.30;99.90
11894;DHT22;6006;49.696;8.662;2023-10-13T03:50:34;15.30;99.90
11894;DHT22;6006;49.696;8.662;2023-10-13T03:53:02;15.30;99.90
11894;DHT22;6006;49.696;8.662;2023-10-13T03:55:31;15.30;99.90
11894;DHT22;6006;49.696;8.662;2023-10-13T03:58:00;15.30;99.90
11894;DHT22;6006;49.696;8.662;2023-10-13T04:00:28;15.30;99.90
11894;DHT22;6006;49.696;8.662;2023-10-13T04:02:57;15.30;99.90
11894;DHT22;6006;49.696;8.662;2023-10-13T04:05:42;15.30;99.90
11894;DHT22;6006;49.696;8.662;2023-10-13T04:08:11;15.30;99.90
11894;DHT22;6006;49.696;8.662;2023-10-13T04:10:56;15.30;99.90
11894;DHT22;6006;49.696;8.662;2023-10-13T04:13:37;15.30;99.90
11894;DHT22;6006;49.696;8.662;2023-10-13T04:16:21;15.30;99.90
11894;DHT22;6006;49.696;8.662;2023-10-13T04:19:13;15.30;99.90
11894;DHT22;6006;49.696;8.662;2023-10-13T04:21:50;15.30;99.90
11894;DHT22;6006;49.696;8.662;2023-10-13T04:24:39;15.30;99.90
11894;DHT22;6006;49.696;8.662;2023-10-13T04:27:20;15.30;99.90
11894;DHT22;6006;49.696;8.662;2023-10-13T04:30:07;15.40;99.90
11894;DHT22;6006;49.696;8.662;2023-10-13T04:32:36;15.40;99.90
11894;DHT22;6006;49.696;8.662;2023-10-13T04:35:07;15.40;99.90
11894;DHT22;6006;49.696;8.662;2023-10-13T04:37:36;15.40;99.90
11894;DHT22;6006;49.696;8.662;2023-10-13T04:40:18;15.40;99.90
11894;DHT22;6006;49.696;8.662;2023-10-13T04:42:46;15.40;99.90
11894;DHT22;6006;49.696;8.662;2023-10-13T04:45:19;15.40;99.90
11894;DHT22;6006;49.696;8.662;2023-10-13T04:48:04;15.40;99.90
11894;DHT22;6006;49.696;8.662;2023-10-13T04:50:46;15.50;99.90
11894;DHT22;6006;49.696;8.662;2023-10-13T04:53:18;15.50;99.90
11894;DHT22;6006;49.696;8.662;2023-10-13T04:55:55;15.50;99.90
11894;DHT22;6006;49.696;8.662;2023-10-13T04:58:42;15.50;99.90
11894;DHT22;6006;49.696;8.662;2023-10-13T05:01:43;15.50;99.90
11894;DHT22;6006;49.696;8.662;2023-10-13T05:04:41;15.60;99.90
11894;DHT22;6006;49.696;8.662;2023-10-13T05:07:22;15.60;99.90
11894;DHT22;6006;49.696;8.662;2023-10-13T05:10:13;15.60;99.90
11894;DHT22;6006;49.696;8.662;2023-10-13T05:13:05;15.60;99.90
11894;DHT22;6006;49.696;8.662;2023-10-13T05:15:50;15.60;99.90
11894;DHT22;6006;49.696;8.662;2023-10-13T05:18:35;15.70;99.90
11894;DHT22;6006;49.696;8.662;2023-10-13T05:21:20;15.70;99.90
11894;DHT22;6006;49.696;8.662;2023-10-13T05:24:05;15.70;99.90
11894;DHT22;6006;49.696;8.662;2023-10-13T05:26:52;15.70;99.90
11894;DHT22;6006;49.696;8.662;2023-10-13T05:29:38;15.70;99.90
11894;DHT22;6006;49.696;8.662;2023-10-13T05:32:23;15.70;99.90
11894;DHT22;6006;49.696;8.662;2023-10-13T05:35:07;15.70;99.90
11894;DHT22;6006;49.696;8.662;2023-10-13T05:37:52;15.80;99.90
11894;DHT22;6006;49.696;8.662;2023-10-13T05:40:36;15.80;99.90
11894;DHT22;6006;49.696;8.662;2023-10-13T05:43:21;15.80;99.90
11894;DHT22;6006;49.696;8.662;2023-10-13T05:46:06;15.90;99.90
11894;DHT22;6006;49.696;8.662;2023-10-13T05:49:15;16.00;99.90
11894;DHT22;6006;49.696;8.662;2023-10-13T05:52:15;16.20;99.90
11894;DHT22;6006;49.696;8.662;2023-10-13T05:55:02;16.30;99.90
11894;DHT22;6006;49.696;8.662;2023-10-13T05:57:46;16.40;99.90
11894;DHT22;6006;49.696;8.662;2023-10-13T06:00:38;16.50;99.90
11894;DHT22;6006;49.696;8.662;2023-10-13T06:03:24;16.40;99.90
11894;DHT22;6006;49.696;8.662;2023-10-13T06:06:08;16.40;99.90
11894;DHT22;6006;49.696;8.662;2023-10-13T06:08:52;16.40;99.90
11894;DHT22;6006;49.696;8.662;2023-10-13T06:11:36;16.40;99.90
11894;DHT22;6006;49.696;8.662;2023-10-13T06:14:21;16.40;99.90
11894;DHT22;6006;49.696;8.662;2023-10-13T06:17:06;16.40;99.90
11894;DHT22;6006;49.696;8.662;2023-10-13T06:19:50;16.50;99.90
11894;DHT22;6006;49.696;8.662;2023-10-13T06:22:35;16.50;99.90
11894;DHT22;6006;49.696;8.662;2023-10-13T06:25:19;16.50;99.90
11894;DHT22;6006;49.696;8.662;2023-10-13T06:28:03;16.50;99.90
11894;DHT22;6006;49.696;8.662;2023-10-13T06:30:57;16.40;99.90
11894;DHT22;6006;49.696;8.662;2023-10-13T06:33:25;16.40;99.90
11894;DHT22;6006;49.696;8.662;2023-10-13T06:35:56;16.50;99.90
11894;DHT22;6006;49.696;8.662;2023-10-13T06:38:23;16.50;99.90
11894;DHT22;6006;49.696;8.662;2023-10-13T06:40:56;16.50;99.90
11894;DHT22;6006;49.696;8.662;2023-10-13T06:43:23;16.60;99.90
11894;DHT22;6006;49.696;8.662;2023-10-13T06:45:50;16.70;99.90
11894;DHT22;6006;49.696;8.662;2023-10-13T06:48:27;16.80;99.90
11894;DHT22;6006;49.696;8.662;2023-10-13T06:50:58;17.00;1.00
11894;DHT22;6006;49.696;8.662;2023-10-13T06:53:30;17.20;1.00
11894;DHT22;6006;49.696;8.662;2023-10-13T06:56:05;17.20;1.00
11894;DHT22;6006;49.696;8.662;2023-10-13T06:58:32;17.30;99.90
11894;DHT22;6006;49.696;8.662;2023-10-13T07:00:59;17.50;99.90
11894;DHT22;6006;49.696;8.662;2023-10-13T07:03:28;17.50;99.90
11894;DHT22;6006;49.696;8.662;2023-10-13T07:05:56;17.70;99.90
11894;DHT22;6006;49.696;8.662;2023-10-13T07:08:25;17.70;99.90
11894;DHT22;6006;49.696;8.662;2023-10-13T07:10:54;17.70;99.90
11894;DHT22;6006;49.696;8.662;2023-10-13T07:13:28;17.90;1.10
11894;DHT22;6006;49.696;8.662;2023-10-13T07:15:55;18.00;1.00
11894;DHT22;6006;49.696;8.662;2023-10-13T07:18:29;18.10;99.90
11894;DHT22;6006;49.696;8.662;2023-10-13T07:21:02;18.20;1.00
11894;DHT22;6006;49.696;8.662;2023-10-13T07:23:35;18.30;1.00
11894;DHT22;6006;49.696;8.662;2023-10-13T07:26:02;18.20;99.90
11894;DHT22;6006;49.696;8.662;2023-10-13T07:28:30;18.20;1.00
11894;DHT22;6006;49.696;8.662;2023-10-13T07:30:57;18.10;1.00
11894;DHT22;6006;49.696;8.662;2023-10-13T07:33:40;18.20;1.00
11894;DHT22;6006;49.696;8.662;2023-10-13T07:36:08;18.30;1.00
11894;DHT22;6006;49.696;8.662;2023-10-13T07:38:41;18.30;1.00
11894;DHT22;6006;49.696;8.662;2023-10-13T07:41:14;18.50;11.90
11894;DHT22;6006;49.696;8.662;2023-10-13T07:43:41;18.50;1.00
11894;DHT22;6006;49.696;8.662;2023-10-13T07:46:10;18.60;99.90
11894;DHT22;6006;49.696;8.662;2023-10-13T07:48:39;18.70;99.90
11894;DHT22;6006;49.696;8.662;2023-10-13T07:51:11;18.80;40.40
11894;DHT22;6006;49.696;8.662;2023-10-13T07:53:41;18.90;37.00
11894;DHT22;6006;49.696;8.662;2023-10-13T07:56:09;18.90;1.00
11894;DHT22;6006;49.696;8.662;2023-10-13T07:58:38;18.90;99.90
11894;DHT22;6006;49.696;8.662;2023-10-13T08:01:13;18.80;99.90
11894;DHT22;6006;49.696;8.662;2023-10-13T08:03:45;18.90;1.00
11894;DHT22;6006;49.696;8.662;2023-10-13T08:06:13;19.00;1.00
11894;DHT22;6006;49.696;8.662;2023-10-13T08:08:51;19.10;1.00
11894;DHT22;6006;49.696;8.662;2023-10-13T08:11:20;19.20;1.00
11894;DHT22;6006;49.696;8.662;2023-10-13T08:13:53;19.10;99.90
11894;DHT22;6006;49.696;8.662;2023-10-13T08:16:24;19.20;77.30
11894;DHT22;6006;49.696;8.662;2023-10-13T08:18:57;19.30;99.90
11894;DHT22;6006;49.696;8.662;2023-10-13T08:21:27;19.30;1.00
11894;DHT22;6006;49.696;8.662;2023-10-13T08:23:57;19.50;1.00
11894;DHT22;6006;49.696;8.662;2023-10-13T08:26:28;19.60;1.00
11894;DHT22;6006;49.696;8.662;2023-10-13T08:29:17;19.70;1.00
11894;DHT22;6006;49.696;8.662;2023-10-13T08:32:16;19.80;1.00
11894;DHT22;6006;49.696;8.662;2023-10-13T08:35:03;20.00;1.00
11894;DHT22;6006;49.696;8.662;2023-10-13T08:37:48;20.00;1.00
11894;DHT22;6006;49.696;8.662;2023-10-13T08:40:27;20.20;1.00
11894;DHT22;6006;49.696;8.662;2023-10-13T08:43:12;20.20;1.00
11894;DHT22;6006;49.696;8.662;2023-10-13T08:45:40;20.30;1.00
11894;DHT22;6006;49.696;8.662;2023-10-13T08:48:20;20.30;1.00
11894;DHT22;6006;49.696;8.662;2023-10-13T08:50:53;20.40;1.00
11894;DHT22;6006;49.696;8.662;2023-10-13T08:53:22;20.40;1.00
11894;DHT22;6006;49.696;8.662;2023-10-13T08:55:57;20.40;1.00
11894;DHT22;6006;49.696;8.662;2023-10-13T08:58:41;20.50;1.00
11894;DHT22;6006;49.696;8.662;2023-10-13T09:01:33;20.30;1.00
11894;DHT22;6006;49.696;8.662;2023-10-13T09:04:12;20.40;1.00
11894;DHT22;6006;49.696;8.662;2023-10-13T09:06:50;20.50;1.00
11894;DHT22;6006;49.696;8.662;2023-10-13T09:09:45;20.60;1.00
11894;DHT22;6006;49.696;8.662;2023-10-13T09:12:26;20.60;1.00
11894;DHT22;6006;49.696;8.662;2023-10-13T09:15:03;20.70;1.00
11894;DHT22;6006;49.696;8.662;2023-10-13T09:17:41;20.90;1.00
11894;DHT22;6006;49.696;8.662;2023-10-13T09:20:14;20.80;1.00
11894;DHT22;6006;49.696;8.662;2023-10-13T09:22:58;20.90;1.00
11894;DHT22;6006;49.696;8.662;2023-10-13T09:25:42;21.10;1.00
11894;DHT22;6006;49.696;8.662;2023-10-13T09:28:24;21.20;1.00
11894;DHT22;6006;49.696;8.662;2023-10-13T09:30:53;21.20;1.00
11894;DHT22;6006;49.696;8.662;2023-10-13T09:33:23;21.20;1.00
11894;DHT22;6006;49.696;8.662;2023-10-13T09:35:58;21.40;1.00
11894;DHT22;6006;49.696;8.662;2023-10-13T09:38:27;21.50;99.90
11894;DHT22;6006;49.696;8.662;2023-10-13T09:40:54;21.50;1.00
11894;DHT22;6006;49.696;8.662;2023-10-13T09:43:23;21.60;1.00
11894;DHT22;6006;49.696;8.662;2023-10-13T09:45:51;21.70;1.00
11894;DHT22;6006;49.696;8.662;2023-10-13T09:48:33;21.80;99.90
11894;DHT22;6006;49.696;8.662;2023-10-13T09:51:01;21.80;99.90
11894;DHT22;6006;49.696;8.662;2023-10-13T09:53:32;22.00;99.90
11894;DHT22;6006;49.696;8.662;2023-10-13T09:56:03;22.20;99.90
11894;DHT22;6006;49.696;8.662;2023-10-13T09:58:46;22.50;99.90
11894;DHT22;6006;49.696;8.662;2023-10-13T10:01:15;22.90;99.90
11894;DHT22;6006;49.696;8.662;2023-10-13T10:03:47;23.20;99.90
11894;DHT22;6006;49.696;8.662;2023-10-13T10:06:21;23.30;99.90
11894;DHT22;6006;49.696;8.662;2023-10-13T10:09:04;23.40;99.90
11894;DHT22;6006;49.696;8.662;2023-10-13T10:12:01;23.40;99.90
11894;DHT22;6006;49.696;8.662;2023-10-13T10:14:41;22.90;99.90
11894;DHT22;6006;49.696;8.662;2023-10-13T10:17:12;22.60;99.90
11894;DHT22;6006;49.696;8.662;2023-10-13T10:19:47;22.60;99.90
11894;DHT22;6006;49.696;8.662;2023-10-13T10:22:25;22.80;99.90
11894;DHT22;6006;49.696;8.662;2023-10-13T10:24:58;22.90;99.90
11894;DHT22;6006;49.696;8.662;2023-10-13T10:27:26;23.10;99.90
11894;DHT22;6006;49.696;8.662;2023-10-13T10:29:55;23.00;99.90
11894;DHT22;6006;49.696;8.662;2023-10-13T10:32:32;22.90;99.90
11894;DHT22;6006;49.696;8.662;2023-10-13T10:35:06;23.00;99.90
11894;DHT22;6006;49.696;8.662;2023-10-13T10:37:40;23.00;99.90
11894;DHT22;6006;49.696;8.662;2023-10-13T10:40:14;23.10;99.90
11894;DHT22;6006;49.696;8.662;2023-10-13T10:42:58;23.30;99.90
11894;DHT22;6006;49.696;8.662;2023-10-13T10:45:26;23.20;99.90
11894;DHT22;6006;49.696;8.662;2023-10-13T10:47:58;23.20;99.90
11894;DHT22;6006;49.696;8.662;2023-10-13T10:50:25;23.00;99.90
11894;DHT22;6006;49.696;8.662;2023-10-13T10:53:01;23.10;99.90
11894;DHT22;6006;49.696;8.662;2023-10-13T10:55:29;23.10;99.90
11894;DHT22;6006;49.696;8.662;2023-10-13T10:57:59;23.40;99.90
11894;DHT22;6006;49.696;8.662;2023-10-13T11:00:27;23.70;99.90
11894;DHT22;6006;49.696;8.662;2023-10-13T11:03:07;23.90;99.90
11894;DHT22;6006;49.696;8.662;2023-10-13T11:05:43;23.90;99.90
11894;DHT22;6006;49.696;8.662;2023-10-13T11:08:21;23.90;99.90
11894;DHT22;6006;49.696;8.662;2023-10-13T11:10:52;23.60;99.90
11894;DHT22;6006;49.696;8.662;2023-10-13T11:13:19;23.70;99.90
11894;DHT22;6006;49.696;8.662;2023-10-13T11:15:48;23.70;99.90
11894;DHT22;6006;49.696;8.662;2023-10-13T11:18:16;23.80;99.90
11894;DHT22;6006;49.696;8.662;2023-10-13T11:20:46;23.80;99.90
11894;DHT22;6006;49.696;8.662;2023-10-13T11:23:19;23.90;99.90
11894;DHT22;6006;49.696;8.662;2023-10-13T11:25:57;24.60;99.90
11894;DHT22;6006;49.696;8.662;2023-10-13T11:28:25;25.20;99.90
11894;DHT22;6006;49.696;8.662;2023-10-13T11:30:54;25.20;99.90
11894;DHT22;6006;49.696;8.662;2023-10-13T11:33:24;25.20;99.90
11894;DHT22;6006;49.696;8.662;2023-10-13T11:35:53;24.90;99.90
11894;DHT22;6006;49.696;8.662;2023-10-13T11:38:23;24.90;99.90
11894;DHT22;6006;49.696;8.662;2023-10-13T11:40:54;24.80;99.90
11894;DHT22;6006;49.696;8.662;2023-10-13T11:43:39;24.50;99.90
11894;DHT22;6006;49.696;8.662;2023-10-13T11:46:26;24.50;99.90
11894;DHT22;6006;49.696;8.662;2023-10-13T11:49:11;24.50;99.90
11894;DHT22;6006;49.696;8.662;2023-10-13T11:51:45;24.30;99.90
11894;DHT22;6006;49.696;8.662;2023-10-13T11:54:12;23.90;99.90
11894;DHT22;6006;49.696;8.662;2023-10-13T11:56:40;24.00;99.90
11894;DHT22;6006;49.696;8.662;2023-10-13T11:59:08;23.90;99.90
11894;DHT22;6006;49.696;8.662;2023-10-13T12:01:43;24.20;99.90
11894;DHT22;6006;49.696;8.662;2023-10-13T12:04:27;24.30;99.90
11894;DHT22;6006;49.696;8.662;2023-10-13T12:07:00;25.00;99.90
11894;DHT22;6006;49.696;8.662;2023-10-13T12:09:40;25.20;99.90
11894;DHT22;6006;49.696;8.662;2023-10-13T12:12:18;24.70;99.90
11894;DHT22;6006;49.696;8.662;2023-10-13T12:14:46;25.00;99.90
11894;DHT22;6006;49.696;8.662;2023-10-13T12:17:21;25.80;99.90
11894;DHT22;6006;49.696;8.662;2023-10-13T12:19:51;26.80;99.90
11894;DHT22;6006;49.696;8.662;2023-10-13T12:22:18;27.80;99.90
11894;DHT22;6006;49.696;8.662;2023-10-13T12:24:52;28.40;99.90
11894;DHT22;6006;49.696;8.662;2023-10-13T12:27:19;28.30;99.90
11894;DHT22;6006;49.696;8.662;2023-10-13T12:29:51;28.10;99.90
11894;DHT22;6006;49.696;8.662;2023-10-13T12:32:18;28.40;99.90
11894;DHT22;6006;49.696;8.662;2023-10-13T12:34:48;28.80;99.90
11894;DHT22;6006;49.696;8.662;2023-10-13T12:37:26;29.00;99.90
11894;DHT22;6006;49.696;8.662;2023-10-13T12:40:12;28.50;99.90
11894;DHT22;6006;49.696;8.662;2023-10-13T12:42:57;27.10;99.90
11894;DHT22;6006;49.696;8.662;2023-10-13T12:45:44;26.60;99.90
11894;DHT22;6006;49.696;8.662;2023-10-13T12:48:29;26.70;99.90
11894;DHT22;6006;49.696;8.662;2023-10-13T12:51:14;26.50;99.90
11894;DHT22;6006;49.696;8.662;2023-10-13T12:53:46;26.50;99.90
11894;DHT22;6006;49.696;8.662;2023-10-13T12:56:14;26.60;99.90
11894;DHT22;6006;49.696;8.662;2023-10-13T12:58:41;26.40;99.90
11894;DHT22;6006;49.696;8.662;2023-10-13T13:01:18;26.50;99.90
11894;DHT22;6006;49.696;8.662;2023-10-13T13:03:46;26.70;99.90
11894;DHT22;6006;49.696;8.662;2023-10-13T13:06:18;26.60;99.90
11894;DHT22;6006;49.696;8.662;2023-10-13T13:08:50;26.50;99.90
11894;DHT22;6006;49.696;8.662;2023-10-13T13:11:18;26.60;99.90
11894;DHT22;6006;49.696;8.662;2023-10-13T13:13:46;26.40;99.90
11894;DHT22;6006;49.696;8.662;2023-10-13T13:16:13;26.20;99.90
11894;DHT22;6006;49.696;8.662;2023-10-13T13:18:41;26.00;99.90
11894;DHT22;6006;49.696;8.662;2023-10-13T13:21:08;25.80;99.90
11894;DHT22;6006;49.696;8.662;2023-10-13T13:23:37;25.90;99.90
11894;DHT22;6006;49.696;8.662;2023-10-13T13:26:05;26.10;99.90
11894;DHT22;6006;49.696;8.662;2023-10-13T13:28:41;26.70;99.90
11894;DHT22;6006;49.696;8.662;2023-10-13T13:31:08;27.30;99.90
11894;DHT22;6006;49.696;8.662;2023-10-13T13:33:38;27.10;99.90
11894;DHT22;6006;49.696;8.662;2023-10-13T13:36:10;27.30;99.90
11894;DHT22;6006;49.696;8.662;2023-10-13T13:38:40;27.50;99.90
11894;DHT22;6006;49.696;8.662;2023-10-13T13:41:11;28.00;99.90
11894;DHT22;6006;49.696;8.662;2023-10-13T13:43:42;28.30;99.90
11894;DHT22;6006;49.696;8.662;2023-10-13T13:46:20;28.70;99.90
11894;DHT22;6006;49.696;8.662;2023-10-13T13:48:51;28.80;99.90
11894;DHT22;6006;49.696;8.662;2023-10-13T13:51:25;29.00;99.90
11894;DHT22;6006;49.696;8.662;2023-10-13T13:53:53;29.20;99.90
11894;DHT22;6006;49.696;8.662;2023-10-13T13:56:21;29.10;99.90
11894;DHT22;6006;49.696;8.662;2023-10-13T13:58:51;28.80;99.90
11894;DHT22;6006;49.696;8.662;2023-10-13T14:01:19;29.40;99.90
11894;DHT22;6006;49.696;8.662;2023-10-13T14:03:48;29.00;99.90
11894;DHT22;6006;49.696;8.662;2023-10-13T14:06:17;29.50;99.90
11894;DHT22;6006;49.696;8.662;2023-10-13T14:08:48;29.30;99.90
11894;DHT22;6006;49.696;8.662;2023-10-13T14:11:17;29.30;99.90
11894;DHT22;6006;49.696;8.662;2023-10-13T14:14:09;29.00;99.90
11894;DHT22;6006;49.696;8.662;2023-10-13T14:16:38;29.30;99.90
11894;DHT22;6006;49.696;8.662;2023-10-13T14:19:10;29.60;99.90
11894;DHT22;6006;49.696;8.662;2023-10-13T14:21:37;29.80;99.90
11894;DHT22;6006;49.696;8.662;2023-10-13T14:24:06;29.90;99.90
11894;DHT22;6006;49.696;8.662;2023-10-13T14:26:39;29.80;99.90
11894;DHT22;6006;49.696;8.662;2023-10-13T14:29:09;30.20;99.90
11894;DHT22;6006;49.696;8.662;2023-10-13T14:31:40;29.50;99.90
11894;DHT22;6006;49.696;8.662;2023-10-13T14:34:07;29.20;99.90
11894;DHT22;6006;49.696;8.662;2023-10-13T14:36:34;29.30;99.90
11894;DHT22;6006;49.696;8.662;2023-10-13T14:39:01;28.70;99.90
11894;DHT22;6006;49.696;8.662;2023-10-13T14:41:30;28.20;99.90
11894;DHT22;6006;49.696;8.662;2023-10-13T14:43:57;27.80;99.90
11894;DHT22;6006;49.696;8.662;2023-10-13T14:46:30;27.70;99.90
11894;DHT22;6006;49.696;8.662;2023-10-13T14:49:01;27.80;99.90
11894;DHT22;6006;49.696;8.662;2023-10-13T14:51:28;27.40;99.90
11894;DHT22;6006;49.696;8.662;2023-10-13T14:53:55;26.90;99.90
11894;DHT22;6006;49.696;8.662;2023-10-13T14:56:25;27.00;99.90
11894;DHT22;6006;49.696;8.662;2023-10-13T14:58:54;27.20;99.90
11894;DHT22;6006;49.696;8.662;2023-10-13T15:01:23;27.00;99.90
11894;DHT22;6006;49.696;8.662;2023-10-13T15:03:52;27.20;99.90
11894;DHT22;6006;49.696;8.662;2023-10-13T15:06:21;27.30;99.90
11894;DHT22;6006;49.696;8.662;2023-10-13T15:08:51;27.50;99.90
11894;DHT22;6006;49.696;8.662;2023-10-13T15:11:20;27.50;99.90
11894;DHT22;6006;49.696;8.662;2023-10-13T15:13:47;27.00;99.90
11894;DHT22;6006;49.696;8.662;2023-10-13T15:16:18;26.80;99.90
11894;DHT22;6006;49.696;8.662;2023-10-13T15:18:45;26.80;99.90
11894;DHT22;6006;49.696;8.662;2023-10-13T15:21:18;26.90;99.90
11894;DHT22;6006;49.696;8.662;2023-10-13T15:23:47;26.70;99.90
11894;DHT22;6006;49.696;8.662;2023-10-13T15:26:14;26.40;99.90
11894;DHT22;6006;49.696;8.662;2023-10-13T15:28:41;26.10;99.90
11894;DHT22;6006;49.696;8.662;2023-10-13T15:31:14;25.90;99.90
11894;DHT22;6006;49.696;8.662;2023-10-13T15:33:54;25.60;99.90
11894;DHT22;6006;49.696;8.662;2023-10-13T15:36:21;25.60;99.90
11894;DHT22;6006;49.696;8.662;2023-10-13T15:38:49;25.50;99.90
11894;DHT22;6006;49.696;8.662;2023-10-13T15:41:21;25.30;99.90
11894;DHT22;6006;49.696;8.662;2023-10-13T15:43:48;25.20;99.90
11894;DHT22;6006;49.696;8.662;2023-10-13T15:46:18;24.80;99.90
11894;DHT22;6006;49.696;8.662;2023-10-13T15:48:46;24.60;99.90
11894;DHT22;6006;49.696;8.662;2023-10-13T15:51:14;24.20;99.90
11894;DHT22;6006;49.696;8.662;2023-10-13T15:53:42;24.00;99.90
11894;DHT22;6006;49.696;8.662;2023-10-13T15:56:10;23.80;99.90
11894;DHT22;6006;49.696;8.662;2023-10-13T15:58:39;23.40;99.90
11894;DHT22;6006;49.696;8.662;2023-10-13T16:01:09;22.80;99.90
11894;DHT22;6006;49.696;8.662;2023-10-13T16:03:38;22.30;99.90
11894;DHT22;6006;49.696;8.662;2023-10-13T16:06:05;21.90;99.90
11894;DHT22;6006;49.696;8.662;2023-10-13T16:08:37;21.80;99.90
11894;DHT22;6006;49.696;8.662;2023-10-13T16:11:05;21.70;1.00
11894;DHT22;6006;49.696;8.662;2023-10-13T16:13:34;21.40;1.00
11894;DHT22;6006;49.696;8.662;2023-10-13T16:16:02;21.20;1.00
11894;DHT22;6006;49.696;8.662;2023-10-13T16:18:29;21.10;1.00
11894;DHT22;6006;49.696;8.662;2023-10-13T16:20:58;20.80;1.00
11894;DHT22;6006;49.696;8.662;2023-10-13T16:23:25;20.70;1.00
11894;DHT22;6006;49.696;8.662;2023-10-13T16:25:54;20.50;1.00
11894;DHT22;6006;49.696;8.662;2023-10-13T16:28:24;20.40;1.00